createdAt,value
2018-09-17T00:00:14.785Z,998.9
2018-09-17T00:01:16.173Z,998.8
2018-09-17T00:02:17.546Z,998.8
2018-09-17T00:03:18.933Z,998.8
2018-09-17T00:04:20.306Z,998.8
2018-09-17T00:05:21.694Z,998.8
2018-09-17T00:06:23.089Z,998.8
2018-09-17T00:07:24.458Z,998.8
2018-09-17T00:08:25.836Z,998.8
2018-09-17T00:09:27.216Z,998.8
2018-09-17T00:10:28.606Z,998.8
2018-09-17T00:11:29.997Z,998.7
2018-09-17T00:12:31.384Z,998.7
2018-09-17T00:13:32.757Z,998.7
2018-09-17T00:14:34.146Z,998.7
2018-09-17T00:15:35.521Z,998.7
2018-09-17T00:16:36.910Z,998.7
2018-09-17T00:17:38.303Z,998.7
2018-09-17T00:18:39.692Z,998.7
2018-09-17T00:19:41.068Z,998.7
2018-09-17T00:20:42.496Z,998.7
2018-09-17T00:21:43.880Z,998.7
2018-09-17T00:22:45.268Z,998.7
2018-09-17T00:23:46.675Z,998.7
2018-09-17T00:24:48.053Z,998.8
2018-09-17T00:25:49.434Z,998.7
2018-09-17T00:26:50.807Z,998.7
2018-09-17T00:27:52.182Z,998.7
2018-09-17T00:28:54.199Z,998.7
2018-09-17T00:29:55.578Z,998.7
2018-09-17T00:30:56.960Z,998.7
2018-09-17T00:31:58.338Z,998.7
2018-09-17T00:32:59.717Z,998.7
2018-09-17T00:34:01.127Z,998.7
2018-09-17T00:35:02.519Z,998.7
2018-09-17T00:36:03.894Z,998.7
2018-09-17T00:37:05.269Z,998.7
2018-09-17T00:38:06.678Z,998.7
2018-09-17T00:39:08.028Z,998.7
2018-09-17T00:40:09.450Z,998.7
2018-09-17T00:41:10.833Z,998.7
2018-09-17T00:42:12.211Z,998.7
2018-09-17T00:43:13.613Z,998.7
2018-09-17T00:44:14.960Z,998.7
2018-09-17T00:45:16.366Z,998.7
2018-09-17T00:46:17.743Z,998.7
2018-09-17T00:47:19.122Z,998.7
2018-09-17T00:48:20.502Z,998.7
2018-09-17T00:49:21.883Z,998.7
2018-09-17T00:50:23.258Z,998.6
2018-09-17T00:51:24.645Z,998.6
2018-09-17T00:52:26.019Z,998.6
2018-09-17T00:53:27.413Z,998.7
2018-09-17T00:54:28.794Z,998.7
2018-09-17T00:55:30.173Z,998.7
2018-09-17T00:56:31.551Z,998.7
2018-09-17T00:57:32.930Z,998.6
2018-09-17T00:58:34.301Z,998.7
2018-09-17T00:59:35.679Z,998.6
2018-09-17T01:00:37.118Z,998.6
2018-09-17T01:01:38.503Z,998.6
2018-09-17T01:02:39.885Z,998.7
2018-09-17T01:03:41.258Z,998.6
2018-09-17T01:04:42.646Z,998.7
2018-09-17T01:05:44.040Z,998.7
2018-09-17T01:06:45.420Z,998.7
2018-09-17T01:07:46.802Z,998.6
2018-09-17T01:08:48.181Z,998.7
2018-09-17T01:09:49.572Z,998.7
2018-09-17T01:10:50.962Z,998.7
2018-09-17T01:11:52.334Z,998.7
2018-09-17T01:12:53.737Z,998.7
2018-09-17T01:13:55.120Z,998.6
2018-09-17T01:14:56.498Z,998.6
2018-09-17T01:15:57.873Z,998.7
2018-09-17T01:16:59.248Z,998.6
2018-09-17T01:18:01.585Z,998.6
2018-09-17T01:19:02.961Z,998.6
2018-09-17T01:20:04.345Z,998.6
2018-09-17T01:21:05.720Z,998.6
2018-09-17T01:22:07.106Z,998.6
2018-09-17T01:23:08.485Z,998.6
2018-09-17T01:24:09.872Z,998.6
2018-09-17T01:25:11.897Z,998.6
2018-09-17T01:26:13.281Z,998.7
2018-09-17T01:27:14.665Z,998.7
2018-09-17T01:28:16.042Z,998.7
2018-09-17T01:29:17.434Z,998.7
2018-09-17T01:30:18.844Z,998.7
2018-09-17T01:31:20.185Z,998.7
2018-09-17T01:32:21.574Z,998.7
2018-09-17T01:33:22.945Z,998.7
2018-09-17T01:34:24.321Z,998.7
2018-09-17T01:35:25.706Z,998.7
2018-09-17T01:36:27.106Z,998.7
2018-09-17T01:37:28.499Z,998.7
2018-09-17T01:38:29.928Z,998.8
2018-09-17T01:39:32.013Z,998.8
2018-09-17T01:40:33.397Z,998.8
2018-09-17T01:41:34.770Z,998.8
2018-09-17T01:42:36.168Z,998.8
2018-09-17T01:43:37.533Z,998.8
2018-09-17T01:44:38.979Z,998.8
2018-09-17T01:45:40.354Z,998.8
2018-09-17T01:46:41.734Z,998.8
2018-09-17T01:47:43.107Z,998.8
2018-09-17T01:48:44.480Z,998.8
2018-09-17T01:49:45.863Z,998.8
2018-09-17T01:50:47.256Z,998.8
2018-09-17T01:51:48.622Z,998.8
2018-09-17T01:52:49.992Z,998.8
2018-09-17T01:53:51.384Z,998.8
2018-09-17T01:54:52.756Z,998.8
2018-09-17T01:55:54.133Z,998.8
2018-09-17T01:56:55.513Z,998.8
2018-09-17T01:57:56.895Z,998.7
2018-09-17T01:58:58.276Z,998.8
2018-09-17T01:59:59.654Z,998.8
2018-09-17T02:01:01.038Z,998.7
2018-09-17T02:02:02.413Z,998.7
2018-09-17T02:03:03.787Z,998.7
2018-09-17T02:04:05.210Z,998.7
2018-09-17T02:05:06.590Z,998.7
2018-09-17T02:06:07.967Z,998.7
2018-09-17T02:07:09.350Z,998.8
2018-09-17T02:08:10.852Z,998.8
2018-09-17T02:09:12.259Z,998.8
2018-09-17T02:10:13.572Z,998.8
2018-09-17T02:11:14.984Z,998.9
2018-09-17T02:12:16.383Z,998.8
2018-09-17T02:13:17.768Z,998.8
2018-09-17T02:14:19.171Z,998.8
2018-09-17T02:15:20.549Z,998.8
2018-09-17T02:16:21.936Z,998.8
2018-09-17T02:17:23.308Z,998.8
2018-09-17T02:18:24.677Z,998.8
2018-09-17T02:19:26.055Z,998.8
2018-09-17T02:20:27.435Z,998.9
2018-09-17T02:21:28.848Z,998.9
2018-09-17T02:22:30.199Z,998.9
2018-09-17T02:23:31.580Z,998.8
2018-09-17T02:24:32.960Z,998.9
2018-09-17T02:25:34.328Z,998.9
2018-09-17T02:26:35.713Z,998.9
2018-09-17T02:27:37.094Z,998.9
2018-09-17T02:28:38.474Z,998.8
2018-09-17T02:29:39.846Z,998.9
2018-09-17T02:30:41.222Z,998.9
2018-09-17T02:31:42.604Z,998.9
2018-09-17T02:32:43.999Z,999.0
2018-09-17T02:33:45.388Z,998.9
2018-09-17T02:34:46.768Z,998.9
2018-09-17T02:35:48.145Z,998.9
2018-09-17T02:36:49.527Z,998.9
2018-09-17T02:37:50.905Z,998.9
2018-09-17T02:38:52.299Z,998.9
2018-09-17T02:39:53.673Z,998.9
2018-09-17T02:40:55.042Z,998.9
2018-09-17T02:41:56.430Z,998.9
2018-09-17T02:42:57.809Z,998.9
2018-09-17T02:43:59.195Z,998.9
2018-09-17T02:45:00.574Z,998.9
2018-09-17T02:46:01.965Z,998.9
2018-09-17T02:47:03.333Z,998.8
2018-09-17T02:48:04.729Z,998.8
2018-09-17T02:49:06.143Z,998.8
2018-09-17T02:50:07.519Z,998.8
2018-09-17T02:51:08.903Z,998.8
2018-09-17T02:52:10.285Z,998.8
2018-09-17T02:53:11.656Z,998.9
2018-09-17T02:54:13.038Z,998.9
2018-09-17T02:55:15.355Z,998.9
2018-09-17T02:56:16.739Z,998.8
2018-09-17T02:57:18.121Z,998.8
2018-09-17T02:58:19.507Z,998.9
2018-09-17T02:59:20.895Z,998.8
2018-09-17T03:00:22.267Z,998.8
2018-09-17T03:01:23.651Z,998.8
2018-09-17T03:02:25.056Z,998.8
2018-09-17T03:03:26.403Z,998.8
2018-09-17T03:04:27.779Z,998.8
2018-09-17T03:05:29.163Z,998.8
2018-09-17T03:06:30.552Z,998.8
2018-09-17T03:07:31.920Z,998.8
2018-09-17T03:08:33.301Z,998.8
2018-09-17T03:09:34.698Z,998.8
2018-09-17T03:10:36.067Z,998.9
2018-09-17T03:11:37.455Z,998.9
2018-09-17T03:12:38.837Z,998.9
2018-09-17T03:13:40.218Z,998.9
2018-09-17T03:14:41.629Z,998.9
2018-09-17T03:15:43.000Z,998.9
2018-09-17T03:16:44.388Z,998.9
2018-09-17T03:17:45.799Z,998.9
2018-09-17T03:18:47.183Z,999.0
2018-09-17T03:19:48.590Z,998.9
2018-09-17T03:20:49.963Z,998.9
2018-09-17T03:21:51.345Z,999.0
2018-09-17T03:22:52.734Z,999.0
2018-09-17T03:23:54.145Z,999.0
2018-09-17T03:24:55.532Z,999.0
2018-09-17T03:25:56.938Z,999.0
2018-09-17T03:26:58.317Z,999.1
2018-09-17T03:27:59.698Z,999.1
2018-09-17T03:29:01.088Z,999.1
2018-09-17T03:30:02.460Z,999.1
2018-09-17T03:31:03.848Z,999.1
2018-09-17T03:32:05.220Z,999.2
2018-09-17T03:33:06.586Z,999.2
2018-09-17T03:34:07.968Z,999.2
2018-09-17T03:35:09.376Z,999.2
2018-09-17T03:36:10.759Z,999.2
2018-09-17T03:37:12.180Z,999.2
2018-09-17T03:38:13.546Z,999.3
2018-09-17T03:39:14.953Z,999.2
2018-09-17T03:40:16.335Z,999.2
2018-09-17T03:41:17.723Z,999.2
2018-09-17T03:42:19.114Z,999.2
2018-09-17T03:43:20.491Z,999.3
2018-09-17T03:44:21.873Z,999.3
2018-09-17T03:45:23.253Z,999.3
2018-09-17T03:46:24.675Z,999.2
2018-09-17T03:47:26.049Z,999.3
2018-09-17T03:48:27.419Z,999.3
2018-09-17T03:49:28.805Z,999.3
2018-09-17T03:50:30.179Z,999.3
2018-09-17T03:51:31.560Z,999.4
2018-09-17T03:52:32.929Z,999.3
2018-09-17T03:53:34.314Z,999.4
2018-09-17T03:54:35.698Z,999.4
2018-09-17T03:55:37.077Z,999.4
2018-09-17T03:56:38.454Z,999.4
2018-09-17T03:57:39.834Z,999.4
2018-09-17T03:58:41.210Z,999.4
2018-09-17T03:59:42.586Z,999.4
2018-09-17T04:00:43.982Z,999.5
2018-09-17T04:01:45.374Z,999.5
2018-09-17T04:02:46.760Z,999.5
2018-09-17T04:03:48.151Z,999.5
2018-09-17T04:04:49.512Z,999.5
2018-09-17T04:05:50.900Z,999.6
2018-09-17T04:06:52.276Z,999.5
2018-09-17T04:07:53.644Z,999.6
2018-09-17T04:08:55.726Z,999.6
2018-09-17T04:09:57.099Z,999.5
2018-09-17T04:10:58.484Z,999.6
2018-09-17T04:11:59.858Z,999.6
2018-09-17T04:13:01.234Z,999.6
2018-09-17T04:14:02.605Z,999.5
2018-09-17T04:15:03.992Z,999.5
2018-09-17T04:16:05.372Z,999.6
2018-09-17T04:17:06.772Z,999.6
2018-09-17T04:18:08.128Z,999.6
2018-09-17T04:19:09.503Z,999.6
2018-09-17T04:20:10.888Z,999.5
2018-09-17T04:21:12.266Z,999.6
2018-09-17T04:22:13.640Z,999.5
2018-09-17T04:23:15.029Z,999.5
2018-09-17T04:24:16.418Z,999.4
2018-09-17T04:25:17.794Z,999.4
2018-09-17T04:26:19.175Z,999.3
2018-09-17T04:27:20.569Z,999.3
2018-09-17T04:28:21.932Z,999.3
2018-09-17T04:29:23.371Z,999.4
2018-09-17T04:30:24.754Z,999.4
2018-09-17T04:31:26.141Z,999.4
2018-09-17T04:32:27.503Z,999.3
2018-09-17T04:33:28.886Z,999.4
2018-09-17T04:34:30.262Z,999.4
2018-09-17T04:35:31.650Z,999.4
2018-09-17T04:36:33.029Z,999.4
2018-09-17T04:37:34.397Z,999.4
2018-09-17T04:38:35.789Z,999.3
2018-09-17T04:39:37.163Z,999.3
2018-09-17T04:40:38.541Z,999.3
2018-09-17T04:41:39.944Z,999.3
2018-09-17T04:42:41.326Z,999.3
2018-09-17T04:43:42.703Z,999.3
2018-09-17T04:44:44.117Z,999.3
2018-09-17T04:45:45.487Z,999.3
2018-09-17T04:46:47.406Z,999.3
2018-09-17T04:47:48.829Z,999.4
2018-09-17T04:48:50.212Z,999.4
2018-09-17T04:49:51.588Z,999.4
2018-09-17T04:50:52.970Z,999.4
2018-09-17T04:51:54.340Z,999.4
2018-09-17T04:52:55.748Z,999.5
2018-09-17T04:53:57.118Z,999.4
2018-09-17T04:54:58.495Z,999.4
2018-09-17T04:55:59.878Z,999.4
2018-09-17T04:57:01.247Z,999.5
2018-09-17T04:58:03.171Z,999.4
2018-09-17T04:59:05.460Z,999.4
2018-09-17T05:00:08.320Z,999.4
2018-09-17T05:01:09.693Z,999.4
2018-09-17T05:02:11.073Z,999.4
2018-09-17T05:03:12.447Z,999.5
2018-09-17T05:04:13.828Z,999.5
2018-09-17T05:05:15.212Z,999.5
2018-09-17T05:06:16.587Z,999.5
2018-09-17T05:07:17.985Z,999.5
2018-09-17T05:08:19.352Z,999.5
2018-09-17T05:09:20.740Z,999.5
2018-09-17T05:10:22.156Z,999.5
2018-09-17T05:11:23.551Z,999.5
2018-09-17T05:12:24.931Z,999.5
2018-09-17T05:13:26.412Z,999.5
2018-09-17T05:14:27.700Z,999.5
2018-09-17T05:15:29.088Z,999.5
2018-09-17T05:16:30.464Z,999.5
2018-09-17T05:17:31.849Z,999.5
2018-09-17T05:18:33.229Z,999.5
2018-09-17T05:19:34.608Z,999.5
2018-09-17T05:20:36.676Z,999.6
2018-09-17T05:21:38.061Z,999.5
2018-09-17T05:22:39.438Z,999.5
2018-09-17T05:23:40.816Z,999.6
2018-09-17T05:24:42.198Z,999.5
2018-09-17T05:25:43.571Z,999.6
2018-09-17T05:26:44.984Z,999.6
2018-09-17T05:27:46.298Z,999.6
2018-09-17T05:28:47.781Z,999.6
2018-09-17T05:29:49.155Z,999.6
2018-09-17T05:30:50.594Z,999.6
2018-09-17T05:31:51.974Z,999.6
2018-09-17T05:32:53.385Z,999.7
2018-09-17T05:33:54.734Z,999.7
2018-09-17T05:34:56.160Z,999.7
2018-09-17T05:35:57.505Z,999.7
2018-09-17T05:36:58.876Z,999.7
2018-09-17T05:38:00.254Z,999.8
2018-09-17T05:39:02.369Z,999.7
2018-09-17T05:40:03.771Z,999.6
2018-09-17T05:41:05.161Z,999.6
2018-09-17T05:42:06.582Z,999.6
2018-09-17T05:43:07.950Z,999.6
2018-09-17T05:44:09.324Z,999.6
2018-09-17T05:45:10.708Z,999.6
2018-09-17T05:46:12.107Z,999.6
2018-09-17T05:47:13.490Z,999.6
2018-09-17T05:48:14.906Z,999.6
2018-09-17T05:49:16.283Z,999.6
2018-09-17T05:50:17.656Z,999.6
2018-09-17T05:51:19.049Z,999.6
2018-09-17T05:52:20.428Z,999.6
2018-09-17T05:53:21.809Z,999.7
2018-09-17T05:54:23.190Z,999.6
2018-09-17T05:55:24.571Z,999.7
2018-09-17T05:56:25.954Z,999.6
2018-09-17T05:57:27.394Z,999.6
2018-09-17T05:58:28.755Z,999.6
2018-09-17T05:59:30.229Z,999.7
2018-09-17T06:00:31.521Z,999.7
2018-09-17T06:01:32.927Z,999.7
2018-09-17T06:02:34.309Z,999.7
2018-09-17T06:03:35.702Z,999.7
2018-09-17T06:04:37.092Z,999.7
2018-09-17T06:05:38.516Z,999.7
2018-09-17T06:06:39.798Z,999.7
2018-09-17T06:07:41.173Z,999.7
2018-09-17T06:08:43.252Z,999.8
2018-09-17T06:09:44.652Z,999.8
2018-09-17T06:10:46.010Z,999.8
2018-09-17T06:11:47.453Z,999.8
2018-09-17T06:12:48.788Z,999.9
2018-09-17T06:13:50.170Z,999.8
2018-09-17T06:14:51.553Z,999.8
2018-09-17T06:15:52.952Z,999.8
2018-09-17T06:16:54.341Z,999.8
2018-09-17T06:17:55.779Z,999.8
2018-09-17T06:18:57.175Z,999.8
2018-09-17T06:19:58.561Z,999.9
2018-09-17T06:20:59.974Z,999.8
2018-09-17T06:22:01.355Z,999.8
2018-09-17T06:23:02.738Z,999.9
2018-09-17T06:24:04.121Z,999.9
2018-09-17T06:25:05.550Z,999.9
2018-09-17T06:26:06.913Z,999.9
2018-09-17T06:27:09.268Z,999.9
2018-09-17T06:28:10.662Z,999.9
2018-09-17T06:29:12.044Z,999.8
2018-09-17T06:30:13.426Z,999.8
2018-09-17T06:31:14.804Z,999.8
2018-09-17T06:32:17.132Z,999.8
2018-09-17T06:33:18.509Z,999.8
2018-09-17T06:34:19.953Z,999.8
2018-09-17T06:35:21.323Z,999.8
2018-09-17T06:36:22.781Z,999.7
2018-09-17T06:37:24.053Z,999.7
2018-09-17T06:38:25.438Z,999.7
2018-09-17T06:39:26.811Z,999.7
2018-09-17T06:40:28.239Z,999.7
2018-09-17T06:41:29.835Z,999.7
2018-09-17T06:42:31.179Z,999.7
2018-09-17T06:43:32.561Z,999.7
2018-09-17T06:44:33.957Z,999.7
2018-09-17T06:45:35.336Z,999.8
2018-09-17T06:46:36.724Z,999.8
2018-09-17T06:47:38.102Z,999.8
2018-09-17T06:48:39.484Z,999.8
2018-09-17T06:49:40.865Z,999.9
2018-09-17T06:50:42.256Z,999.9
2018-09-17T06:51:43.635Z,999.9
2018-09-17T06:52:45.046Z,999.9
2018-09-17T06:53:46.467Z,999.9
2018-09-17T06:54:47.869Z,999.9
2018-09-17T06:55:49.249Z,999.9
2018-09-17T06:56:50.640Z,999.9
2018-09-17T06:57:52.030Z,999.9
2018-09-17T06:58:53.417Z,999.9
2018-09-17T06:59:54.796Z,1000.0
2018-09-17T07:00:56.174Z,1000.0
2018-09-17T07:01:58.181Z,1000.0
2018-09-17T07:02:59.563Z,1000.0
2018-09-17T07:04:00.943Z,999.9
2018-09-17T07:05:03.234Z,1000.0
2018-09-17T07:06:04.699Z,999.9
2018-09-17T07:08:09.683Z,1000.0
2018-09-17T07:09:13.087Z,1000.0
2018-09-17T07:10:14.611Z,1000.0
2018-09-17T07:11:16.031Z,1000.0
2018-09-17T07:12:17.444Z,1000.0
2018-09-17T07:13:19.621Z,1000.0
2018-09-17T07:14:22.750Z,1000.0
2018-09-17T07:15:24.145Z,1000.0
2018-09-17T07:16:25.533Z,1000.0
2018-09-17T07:17:26.897Z,1000.0
2018-09-17T07:18:28.828Z,1000.1
2018-09-17T07:19:33.528Z,1000.0
2018-09-17T07:20:34.931Z,1000.0
2018-09-17T07:21:37.041Z,1000.0
2018-09-17T07:22:39.163Z,1000.1
2018-09-17T07:23:40.592Z,1000.1
2018-09-17T07:24:41.976Z,1000.1
2018-09-17T07:25:43.412Z,1000.0
2018-09-17T07:26:44.791Z,1000.0
2018-09-17T07:27:46.192Z,1000.1
2018-09-17T07:28:47.575Z,1000.0
2018-09-17T07:29:48.961Z,1000.0
2018-09-17T07:30:50.379Z,1000.1
2018-09-17T07:31:51.758Z,1000.1
2018-09-17T07:32:53.165Z,1000.0
2018-09-17T07:33:56.081Z,1000.1
2018-09-17T07:34:57.457Z,1000.0
2018-09-17T07:35:58.900Z,1000.0
2018-09-17T07:37:00.360Z,1000.0
2018-09-17T07:38:01.782Z,1000.0
2018-09-17T07:39:04.749Z,1000.0
2018-09-17T07:40:06.152Z,1000.1
2018-09-17T07:41:07.528Z,1000.0
2018-09-17T07:42:08.942Z,1000.1
2018-09-17T07:43:10.350Z,1000.0
2018-09-17T07:44:11.738Z,1000.1
2018-09-17T07:45:13.164Z,1000.0
2018-09-17T07:46:14.554Z,1000.0
2018-09-17T07:47:15.919Z,1000.0
2018-09-17T07:48:17.314Z,1000.0
2018-09-17T07:49:18.689Z,1000.0
2018-09-17T07:50:20.077Z,1000.0
2018-09-17T07:51:21.509Z,1000.0
2018-09-17T07:52:23.061Z,1000.0
2018-09-17T07:53:24.497Z,1000.0
2018-09-17T07:54:25.865Z,999.9
2018-09-17T07:55:27.248Z,1000.0
2018-09-17T07:56:30.675Z,999.9
2018-09-17T07:57:32.951Z,999.9
2018-09-17T07:58:36.206Z,999.9
2018-09-17T07:59:37.597Z,999.9
2018-09-17T08:00:38.973Z,999.9
2018-09-17T08:01:40.938Z,999.9
2018-09-17T08:02:42.329Z,999.9
2018-09-17T08:03:43.713Z,999.9
2018-09-17T08:04:45.090Z,1000.0
2018-09-17T08:05:48.435Z,999.9
2018-09-17T08:06:49.918Z,999.9
2018-09-17T08:07:52.163Z,999.9
2018-09-17T08:09:36.428Z,1000.0
2018-09-17T08:10:37.816Z,999.9
2018-09-17T08:11:39.199Z,999.9
2018-09-17T08:12:40.596Z,1000.0
2018-09-17T08:13:42.265Z,1000.0
2018-09-17T08:14:43.711Z,999.9
2018-09-17T08:15:45.991Z,999.9
2018-09-17T08:16:47.367Z,999.9
2018-09-17T08:17:48.741Z,999.9
2018-09-17T08:18:50.132Z,999.9
2018-09-17T08:19:51.499Z,999.9
2018-09-17T08:20:53.006Z,999.9
2018-09-17T08:21:54.389Z,999.9
2018-09-17T08:22:55.761Z,999.9
2018-09-17T08:23:57.199Z,999.9
2018-09-17T08:24:58.583Z,999.9
2018-09-17T08:25:59.959Z,999.9
2018-09-17T08:27:01.342Z,999.9
2018-09-17T08:28:03.254Z,999.8
2018-09-17T08:29:04.650Z,999.9
2018-09-17T08:30:06.086Z,999.8
2018-09-17T08:31:08.182Z,999.8
2018-09-17T08:32:09.570Z,999.8
2018-09-17T08:33:10.964Z,999.8
2018-09-17T08:34:12.337Z,999.7
2018-09-17T08:35:13.795Z,999.8
2018-09-17T08:36:15.276Z,999.7
2018-09-17T08:37:16.652Z,999.7
2018-09-17T08:38:20.180Z,999.7
2018-09-17T08:39:21.087Z,999.7
2018-09-17T08:40:22.468Z,999.7
2018-09-17T08:41:23.861Z,999.7
2018-09-17T08:42:25.253Z,999.7
2018-09-17T08:43:26.635Z,999.7
2018-09-17T08:44:29.402Z,999.7
2018-09-17T08:45:30.925Z,999.7
2018-09-17T08:46:32.285Z,999.7
2018-09-17T08:47:33.607Z,999.6
2018-09-17T08:48:35.042Z,999.6
2018-09-17T08:49:36.425Z,999.7
2018-09-17T08:50:37.826Z,999.6
2018-09-17T08:51:39.203Z,999.6
2018-09-17T08:52:40.677Z,999.6
2018-09-17T08:53:42.004Z,999.6
2018-09-17T08:54:43.390Z,999.6
2018-09-17T08:55:44.782Z,999.6
2018-09-17T08:56:46.183Z,999.6
2018-09-17T08:57:47.557Z,999.6
2018-09-17T08:58:48.946Z,999.6
2018-09-17T08:59:50.333Z,999.6
2018-09-17T09:00:51.747Z,999.5
2018-09-17T09:01:53.145Z,999.6
2018-09-17T09:02:54.527Z,999.5
2018-09-17T09:03:55.943Z,999.5
2018-09-17T09:04:57.398Z,999.5
2018-09-17T09:05:58.775Z,999.5
2018-09-17T09:07:00.179Z,999.5
2018-09-17T09:08:01.556Z,999.5
2018-09-17T09:09:02.988Z,999.5
2018-09-17T09:10:04.353Z,999.5
2018-09-17T09:11:05.743Z,999.5
2018-09-17T09:12:07.161Z,999.4
2018-09-17T09:13:08.537Z,999.4
2018-09-17T09:14:10.453Z,999.4
2018-09-17T09:15:11.837Z,999.4
2018-09-17T09:16:15.352Z,999.4
2018-09-17T09:17:16.729Z,999.4
2018-09-17T09:18:18.105Z,999.4
2018-09-17T09:19:19.489Z,999.4
2018-09-17T09:20:20.866Z,999.4
2018-09-17T09:21:22.966Z,999.4
2018-09-17T09:22:25.769Z,999.4
2018-09-17T09:23:27.144Z,999.4
2018-09-17T09:24:28.521Z,999.4
2018-09-17T09:25:29.953Z,999.4
2018-09-17T09:26:31.343Z,999.4
2018-09-17T09:27:32.741Z,999.4
2018-09-17T09:28:34.109Z,999.4
2018-09-17T09:29:35.516Z,999.4
2018-09-17T09:30:36.894Z,999.4
2018-09-17T09:31:38.387Z,999.4
2018-09-17T09:32:39.818Z,999.4
2018-09-17T09:33:41.208Z,999.4
2018-09-17T09:34:42.592Z,999.4
2018-09-17T09:35:43.985Z,999.4
2018-09-17T09:36:45.480Z,999.4
2018-09-17T09:37:46.894Z,999.3
2018-09-17T09:38:48.279Z,999.3
2018-09-17T09:39:49.687Z,999.3
2018-09-17T09:40:51.102Z,999.3
2018-09-17T09:41:52.568Z,999.3
2018-09-17T09:42:53.975Z,999.3
2018-09-17T09:43:55.340Z,999.3
2018-09-17T09:45:00.517Z,999.3
2018-09-17T09:46:01.930Z,999.3
2018-09-17T09:47:03.333Z,999.3
2018-09-17T09:48:04.740Z,999.3
2018-09-17T09:49:06.133Z,999.3
2018-09-17T09:50:07.528Z,999.3
2018-09-17T09:51:08.907Z,999.2
2018-09-17T09:52:10.290Z,999.2
2018-09-17T09:53:11.673Z,999.2
2018-09-17T09:54:13.083Z,999.2
2018-09-17T09:55:14.462Z,999.2
2018-09-17T09:56:15.852Z,999.2
2018-09-17T09:57:17.229Z,999.2
2018-09-17T09:58:18.607Z,999.2
2018-09-17T09:59:20.011Z,999.2
2018-09-17T10:00:21.398Z,999.2
2018-09-17T10:01:22.789Z,999.1
2018-09-17T10:02:24.169Z,999.1
2018-09-17T10:03:25.552Z,999.1
2018-09-17T10:04:26.933Z,999.1
2018-09-17T10:05:28.320Z,999.1
2018-09-17T10:06:29.709Z,999.2
2018-09-17T10:07:31.102Z,999.1
2018-09-17T10:08:32.490Z,999.1
2018-09-17T10:09:33.969Z,999.1
2018-09-17T10:10:35.356Z,999.1
2018-09-17T10:11:36.754Z,999.1
2018-09-17T10:12:38.134Z,999.1
2018-09-17T10:13:39.536Z,999.0
2018-09-17T10:14:40.948Z,999.1
2018-09-17T10:15:42.349Z,999.0
2018-09-17T10:16:43.761Z,999.0
2018-09-17T10:17:45.188Z,999.0
2018-09-17T10:18:46.557Z,999.0
2018-09-17T10:19:47.942Z,999.0
2018-09-17T10:20:49.323Z,999.0
2018-09-17T10:21:50.765Z,999.0
2018-09-17T10:22:52.177Z,999.0
2018-09-17T10:23:53.531Z,998.9
2018-09-17T10:24:54.899Z,998.9
2018-09-17T10:25:56.288Z,998.9
2018-09-17T10:26:57.701Z,998.9
2018-09-17T10:27:59.100Z,998.9
2018-09-17T10:29:00.472Z,998.9
2018-09-17T10:30:01.890Z,998.9
2018-09-17T10:31:03.252Z,998.8
2018-09-17T10:32:04.644Z,998.8
2018-09-17T10:33:06.026Z,998.8
2018-09-17T10:34:07.421Z,998.9
2018-09-17T10:35:08.795Z,998.8
2018-09-17T10:36:10.198Z,998.8
2018-09-17T10:37:11.585Z,998.8
2018-09-17T10:38:12.949Z,998.8
2018-09-17T10:39:14.338Z,998.8
2018-09-17T10:40:15.718Z,998.8
2018-09-17T10:41:17.094Z,998.8
2018-09-17T10:42:18.471Z,998.8
2018-09-17T10:43:19.865Z,998.8
2018-09-17T10:44:21.267Z,998.8
2018-09-17T10:45:22.637Z,998.7
2018-09-17T10:46:24.025Z,998.8
2018-09-17T10:47:25.396Z,998.8
2018-09-17T10:48:26.789Z,998.7
2018-09-17T10:49:28.156Z,998.7
2018-09-17T10:50:29.549Z,998.7
2018-09-17T10:51:30.931Z,998.6
2018-09-17T10:52:32.313Z,998.6
2018-09-17T10:53:33.705Z,998.6
2018-09-17T10:54:36.074Z,998.6
2018-09-17T10:55:37.476Z,998.7
2018-09-17T10:56:38.871Z,998.6
2018-09-17T10:57:41.038Z,998.6
2018-09-17T10:58:42.420Z,998.6
2018-09-17T10:59:43.801Z,998.6
2018-09-17T11:00:45.183Z,998.6
2018-09-17T11:01:46.562Z,998.6
2018-09-17T11:02:47.941Z,998.6
2018-09-17T11:03:49.337Z,998.6
2018-09-17T11:04:51.411Z,998.6
2018-09-17T11:05:52.961Z,998.6
2018-09-17T11:06:54.351Z,998.6
2018-09-17T11:07:56.709Z,998.6
2018-09-17T11:08:58.092Z,998.6
2018-09-17T11:09:59.481Z,998.5
2018-09-17T11:11:00.855Z,998.5
2018-09-17T11:12:02.259Z,998.5
2018-09-17T11:13:03.632Z,998.4
2018-09-17T11:14:05.019Z,998.4
2018-09-17T11:15:06.403Z,998.4
2018-09-17T11:16:07.769Z,998.4
2018-09-17T11:17:09.211Z,998.4
2018-09-17T11:18:10.534Z,998.4
2018-09-17T11:19:11.922Z,998.4
2018-09-17T11:20:13.295Z,998.4
2018-09-17T11:21:14.673Z,998.4
2018-09-17T11:22:16.046Z,998.3
2018-09-17T11:23:17.433Z,998.4
2018-09-17T11:24:18.852Z,998.3
2018-09-17T11:25:20.234Z,998.3
2018-09-17T11:26:21.631Z,998.3
2018-09-17T11:27:23.141Z,998.3
2018-09-17T11:28:24.537Z,998.3
2018-09-17T11:29:25.948Z,998.2
2018-09-17T11:30:27.387Z,998.2
2018-09-17T11:31:28.833Z,998.2
2018-09-17T11:32:30.174Z,998.2
2018-09-17T11:33:31.568Z,998.1
2018-09-17T11:34:32.961Z,998.1
2018-09-17T11:35:34.344Z,998.2
2018-09-17T11:36:35.756Z,998.1
2018-09-17T11:37:37.253Z,998.2
2018-09-17T11:38:38.661Z,998.2
2018-09-17T11:39:40.053Z,998.2
2018-09-17T11:40:41.474Z,998.2
2018-09-17T11:41:42.865Z,998.1
2018-09-17T11:42:44.252Z,998.1
2018-09-17T11:43:45.639Z,998.1
2018-09-17T11:44:47.027Z,998.1
2018-09-17T11:45:48.419Z,998.2
2018-09-17T11:46:49.830Z,998.2
2018-09-17T11:47:51.219Z,998.2
2018-09-17T11:48:52.604Z,998.2
2018-09-17T11:49:53.998Z,998.2
2018-09-17T11:50:56.078Z,998.2
2018-09-17T11:51:58.650Z,998.2
2018-09-17T11:53:00.047Z,998.2
2018-09-17T11:54:01.477Z,998.2
2018-09-17T11:55:02.833Z,998.2
2018-09-17T11:56:04.211Z,998.1
2018-09-17T11:57:05.607Z,998.1
2018-09-17T11:58:06.990Z,998.1
2018-09-17T11:59:08.390Z,998.0
2018-09-17T12:00:09.843Z,998.1
2018-09-17T12:01:11.213Z,998.0
2018-09-17T12:02:12.623Z,998.0
2018-09-17T12:03:13.985Z,998.0
2018-09-17T12:04:15.393Z,998.0
2018-09-17T12:05:16.760Z,998.0
2018-09-17T12:06:18.166Z,998.0
2018-09-17T12:07:19.610Z,997.9
2018-09-17T12:08:20.980Z,997.9
2018-09-17T12:09:22.428Z,997.9
2018-09-17T12:10:23.749Z,997.9
2018-09-17T12:11:25.156Z,997.9
2018-09-17T12:12:26.671Z,997.9
2018-09-17T12:13:28.044Z,997.9
2018-09-17T12:14:30.440Z,997.8
2018-09-17T12:15:31.823Z,997.8
2018-09-17T12:16:33.206Z,997.8
2018-09-17T12:17:34.660Z,997.8
2018-09-17T12:18:36.872Z,997.8
2018-09-17T12:19:38.263Z,997.7
2018-09-17T12:20:41.133Z,997.7
2018-09-17T12:21:42.460Z,997.6
2018-09-17T12:22:43.923Z,997.7
2018-09-17T12:23:45.315Z,997.7
2018-09-17T12:24:46.697Z,997.7
2018-09-17T12:25:48.087Z,997.6
2018-09-17T12:26:49.484Z,997.7
2018-09-17T12:27:50.872Z,997.6
2018-09-17T12:28:52.428Z,997.6
2018-09-17T12:29:53.865Z,997.6
2018-09-17T12:30:55.256Z,997.6
2018-09-17T12:31:56.654Z,997.6
2018-09-17T12:32:58.072Z,997.6
2018-09-17T12:33:59.597Z,997.6
2018-09-17T12:35:00.815Z,997.6
2018-09-17T12:36:02.404Z,997.6
2018-09-17T12:37:03.788Z,997.6
2018-09-17T12:38:05.171Z,997.5
2018-09-17T12:39:06.566Z,997.5
2018-09-17T12:40:07.972Z,997.6
2018-09-17T12:41:09.355Z,997.5
2018-09-17T12:42:10.739Z,997.5
2018-09-17T12:43:12.116Z,997.6
2018-09-17T12:44:13.497Z,997.5
2018-09-17T12:45:14.873Z,997.6
2018-09-17T12:46:16.295Z,997.6
2018-09-17T12:47:17.693Z,997.5
2018-09-17T12:48:19.064Z,997.6
2018-09-17T12:49:20.496Z,997.5
2018-09-17T12:50:21.886Z,997.5
2018-09-17T12:51:23.335Z,997.5
2018-09-17T12:52:24.770Z,997.5
2018-09-17T12:53:26.161Z,997.5
2018-09-17T12:54:27.546Z,997.5
2018-09-17T12:55:28.945Z,997.4
2018-09-17T12:56:30.424Z,997.4
2018-09-17T12:57:31.820Z,997.4
2018-09-17T12:58:33.227Z,997.4
2018-09-17T12:59:34.607Z,997.4
2018-09-17T13:00:36.771Z,997.4
2018-09-17T13:01:38.155Z,997.4
2018-09-17T13:02:39.536Z,997.3
2018-09-17T13:03:40.916Z,997.4
2018-09-17T13:04:42.296Z,997.4
2018-09-17T13:05:43.707Z,997.3
2018-09-17T13:06:45.192Z,997.3
2018-09-17T13:07:46.579Z,997.3
2018-09-17T13:08:48.032Z,997.3
2018-09-17T13:09:49.428Z,997.3
2018-09-17T13:10:51.215Z,997.3